createdAt,value
2019-03-15T00:02:17.390Z,48.66
2019-03-15T00:04:45.218Z,48.59
2019-03-15T00:07:12.951Z,52.10
2019-03-15T00:09:40.705Z,49.53
2019-03-15T00:12:08.483Z,50.93
2019-03-15T00:14:36.246Z,51.89
2019-03-15T00:17:03.988Z,49.07
2019-03-15T00:19:31.778Z,49.46
2019-03-15T00:21:59.540Z,51.47
2019-03-15T00:24:27.394Z,51.86
2019-03-15T00:26:55.120Z,50.44
2019-03-15T00:29:22.857Z,52.70
2019-03-15T00:31:50.614Z,51.93
2019-03-15T00:34:18.372Z,50.74
2019-03-15T00:36:46.115Z,50.00
2019-03-15T00:39:13.913Z,47.75
2019-03-15T00:41:41.664Z,48.41
2019-03-15T00:44:09.404Z,48.59
2019-03-15T00:46:37.190Z,50.39
2019-03-15T00:49:04.926Z,48.75
2019-03-15T00:51:32.739Z,48.24
2019-03-15T00:54:00.520Z,51.55
2019-03-15T00:56:28.241Z,48.56
2019-03-15T00:58:56.034Z,50.23
2019-03-15T01:01:23.805Z,51.06
2019-03-15T01:03:51.551Z,48.06
2019-03-15T01:06:19.305Z,49.62
2019-03-15T01:08:47.049Z,50.27
2019-03-15T01:11:14.784Z,48.49
2019-03-15T01:13:42.561Z,48.84
2019-03-15T01:16:10.330Z,48.56
2019-03-15T01:18:38.054Z,47.89
2019-03-15T01:21:05.817Z,49.50
2019-03-15T01:23:33.574Z,50.03
2019-03-15T01:26:01.337Z,49.74
2019-03-15T01:28:29.072Z,49.01
2019-03-15T01:30:56.848Z,50.81
2019-03-15T01:33:24.592Z,52.03
2019-03-15T01:35:52.388Z,51.69
2019-03-15T01:38:20.176Z,48.11
2019-03-15T01:40:48.989Z,48.67
2019-03-15T01:43:16.978Z,50.10
2019-03-15T01:45:44.716Z,48.64
2019-03-15T01:48:12.450Z,49.40
2019-03-15T01:50:40.215Z,50.20
2019-03-15T01:53:07.947Z,48.60
2019-03-15T01:55:35.717Z,51.20
2019-03-15T01:58:03.549Z,49.50
2019-03-15T02:00:31.310Z,49.54
2019-03-15T02:03:02.081Z,49.03
2019-03-15T02:05:28.962Z,50.47
2019-03-15T02:07:56.708Z,49.18
2019-03-15T02:10:24.521Z,50.31
2019-03-15T02:12:52.282Z,50.43
2019-03-15T02:15:20.027Z,50.72
2019-03-15T02:17:47.857Z,49.60
2019-03-15T02:20:15.600Z,50.30
2019-03-15T02:22:43.348Z,50.25
2019-03-15T02:25:11.094Z,49.07
2019-03-15T02:27:39.035Z,50.13
2019-03-15T02:30:06.997Z,50.20
2019-03-15T02:32:34.777Z,49.32
2019-03-15T02:35:02.519Z,52.24
2019-03-15T02:37:30.288Z,50.57
2019-03-15T02:39:58.019Z,50.10
2019-03-15T02:42:26.534Z,49.15
2019-03-15T02:44:54.416Z,51.13
2019-03-15T02:47:22.158Z,49.82
2019-03-15T02:49:49.905Z,51.20
2019-03-15T02:52:17.763Z,49.89
2019-03-15T02:54:45.570Z,51.04
2019-03-15T02:57:13.354Z,49.35
2019-03-15T02:59:41.398Z,49.49
2019-03-15T03:02:09.285Z,49.93
2019-03-15T03:04:37.129Z,50.58
2019-03-15T03:07:04.866Z,53.23
2019-03-15T03:09:34.141Z,50.49
2019-03-15T03:12:02.058Z,50.34
2019-03-15T03:14:30.944Z,50.29
2019-03-15T03:16:58.876Z,51.74
2019-03-15T03:19:28.153Z,50.70
2019-03-15T03:21:56.157Z,50.04
2019-03-15T03:24:24.622Z,50.46
2019-03-15T03:26:52.639Z,51.74
2019-03-15T03:29:20.436Z,50.94
2019-03-15T03:31:48.225Z,53.74
2019-03-15T03:34:16.053Z,50.19
2019-03-15T03:36:43.873Z,50.10
2019-03-15T03:39:11.684Z,50.45
2019-03-15T03:41:39.436Z,50.68
2019-03-15T03:44:07.178Z,50.75
2019-03-15T03:46:34.944Z,50.94
2019-03-15T03:49:02.677Z,50.15
2019-03-15T03:51:30.475Z,49.60
2019-03-15T03:53:58.484Z,50.83
2019-03-15T03:56:26.312Z,49.39
2019-03-15T03:58:54.062Z,53.49
2019-03-15T04:01:21.830Z,49.33
2019-03-15T04:03:49.676Z,50.51
2019-03-15T04:06:17.469Z,50.07
2019-03-15T04:08:45.193Z,50.18
2019-03-15T04:11:12.937Z,50.78
2019-03-15T04:13:40.699Z,50.63
2019-03-15T04:16:08.752Z,51.29
2019-03-15T04:18:36.499Z,51.88
2019-03-15T04:21:04.300Z,51.35
2019-03-15T04:23:32.043Z,53.53
2019-03-15T04:26:01.601Z,51.46
2019-03-15T04:28:29.354Z,51.57
2019-03-15T04:30:57.092Z,51.45
2019-03-15T04:33:24.829Z,51.16
2019-03-15T04:35:52.564Z,51.57
2019-03-15T04:38:20.306Z,52.11
2019-03-15T04:40:48.098Z,51.52
2019-03-15T04:43:15.850Z,51.33
2019-03-15T04:45:43.580Z,51.19
2019-03-15T04:48:11.334Z,51.45
2019-03-15T04:50:39.131Z,51.43
2019-03-15T04:53:06.939Z,51.49
2019-03-15T04:55:34.720Z,51.85
2019-03-15T04:58:02.470Z,51.77
2019-03-15T05:00:30.207Z,51.36
2019-03-15T05:02:57.963Z,50.96
2019-03-15T05:05:25.703Z,51.36
2019-03-15T05:07:53.460Z,51.37
2019-03-15T05:10:21.204Z,51.10
2019-03-15T05:12:49.011Z,51.80
2019-03-15T05:15:16.757Z,51.30
2019-03-15T05:17:44.513Z,51.18
2019-03-15T05:20:12.235Z,51.14
2019-03-15T05:22:39.987Z,50.79
2019-03-15T05:25:07.741Z,51.27
2019-03-15T05:27:35.488Z,51.09
2019-03-15T05:30:03.266Z,51.12
2019-03-15T05:32:31.218Z,50.83
2019-03-15T05:34:59.164Z,50.69
2019-03-15T05:37:26.901Z,50.93
2019-03-15T05:39:54.637Z,50.65
2019-03-15T05:42:22.389Z,50.83
2019-03-15T05:44:50.112Z,50.88
2019-03-15T05:47:17.888Z,50.64
2019-03-15T05:49:45.648Z,50.66
2019-03-15T05:52:13.404Z,50.66
2019-03-15T05:54:41.221Z,50.88
2019-03-15T05:57:08.997Z,50.98
2019-03-15T05:59:36.791Z,51.47
2019-03-15T06:02:04.537Z,50.65
2019-03-15T06:04:32.268Z,50.91
2019-03-15T06:07:00.028Z,51.00
2019-03-15T06:09:27.760Z,51.15
2019-03-15T06:11:56.641Z,51.06
2019-03-15T06:14:24.406Z,50.91
2019-03-15T06:16:52.289Z,51.15
2019-03-15T06:19:20.138Z,51.30
2019-03-15T06:21:47.992Z,50.97
2019-03-15T06:24:15.751Z,50.75
2019-03-15T06:26:43.611Z,51.05
2019-03-15T06:29:11.727Z,51.10
2019-03-15T06:31:39.462Z,50.91
2019-03-15T06:34:07.244Z,52.29
2019-03-15T06:36:35.112Z,50.72
2019-03-15T06:39:04.296Z,50.84
2019-03-15T06:41:32.114Z,50.90
2019-03-15T06:43:59.902Z,50.19
2019-03-15T06:46:27.649Z,50.11
2019-03-15T06:48:55.693Z,50.72
2019-03-15T06:51:23.420Z,50.97
2019-03-15T06:53:51.152Z,50.78
2019-03-15T06:56:18.922Z,49.33
2019-03-15T06:58:47.981Z,50.63
2019-03-15T07:01:15.790Z,50.94
2019-03-15T07:03:43.528Z,50.85
2019-03-15T07:06:11.345Z,50.81
2019-03-15T07:08:39.886Z,50.66
2019-03-15T07:11:07.780Z,50.68
2019-03-15T07:13:35.527Z,50.80
2019-03-15T07:16:03.281Z,50.79
2019-03-15T07:18:31.076Z,50.75
2019-03-15T07:20:58.914Z,50.62
2019-03-15T07:23:26.650Z,50.60
2019-03-15T07:25:54.388Z,50.55
2019-03-15T07:28:22.161Z,50.38
2019-03-15T07:30:49.925Z,50.79
2019-03-15T07:33:17.669Z,50.28
2019-03-15T07:35:45.456Z,50.12
2019-03-15T07:38:13.423Z,50.47
2019-03-15T07:40:41.160Z,50.63
2019-03-15T07:43:08.949Z,50.29
2019-03-15T07:45:36.695Z,50.44
2019-03-15T07:48:04.477Z,50.41
2019-03-15T07:50:32.288Z,50.26
2019-03-15T07:53:00.024Z,50.43
2019-03-15T07:55:27.774Z,50.27
2019-03-15T07:57:55.522Z,50.15
2019-03-15T08:00:23.285Z,50.43
2019-03-15T08:02:51.057Z,50.27
2019-03-15T08:05:18.837Z,50.32
2019-03-15T08:07:46.658Z,50.10
2019-03-15T08:10:15.476Z,50.13
2019-03-15T08:12:43.229Z,50.16
2019-03-15T08:15:10.957Z,50.01
2019-03-15T08:17:38.782Z,50.12
2019-03-15T08:20:06.746Z,50.27
2019-03-15T08:22:34.543Z,50.45
2019-03-15T08:25:02.294Z,49.66
2019-03-15T08:27:30.048Z,50.18
2019-03-15T08:29:57.800Z,50.05
2019-03-15T08:32:25.638Z,50.14
2019-03-15T08:34:53.381Z,49.93
2019-03-15T08:37:21.146Z,49.99
2019-03-15T08:39:48.902Z,50.09
2019-03-15T08:42:16.698Z,50.02
2019-03-15T08:44:44.535Z,50.04
2019-03-15T08:47:12.274Z,49.91
2019-03-15T08:49:45.853Z,49.97
2019-03-15T08:52:13.630Z,50.13
2019-03-15T08:54:41.493Z,49.89
2019-03-15T08:57:09.334Z,50.09
2019-03-15T08:59:37.092Z,50.46
2019-03-15T09:02:04.847Z,50.02
2019-03-15T09:04:32.621Z,50.08
2019-03-15T09:07:00.599Z,50.32
2019-03-15T09:09:28.391Z,50.13
2019-03-15T09:11:56.164Z,50.09
2019-03-15T09:14:33.520Z,50.53
2019-03-15T09:17:02.339Z,49.91
2019-03-15T09:19:30.105Z,50.22
2019-03-15T09:22:00.599Z,50.13
2019-03-15T09:24:27.555Z,50.24
2019-03-15T09:26:55.338Z,50.04
2019-03-15T09:29:23.094Z,50.02
2019-03-15T09:32:04.423Z,49.61
2019-03-15T09:34:20.318Z,49.83
2019-03-15T09:36:50.283Z,52.82
2019-03-15T09:39:17.575Z,50.30
2019-03-15T09:41:45.309Z,50.33
2019-03-15T09:44:13.111Z,49.79
2019-03-15T09:46:40.889Z,49.68
2019-03-15T09:49:08.661Z,50.12
2019-03-15T09:51:36.441Z,50.69
2019-03-15T09:54:04.258Z,51.58
2019-03-15T09:56:32.018Z,50.04
2019-03-15T09:58:59.773Z,49.81
2019-03-15T10:01:34.630Z,50.26
2019-03-15T10:03:57.054Z,50.28
2019-03-15T10:06:24.875Z,49.96
2019-03-15T10:08:52.650Z,50.63
2019-03-15T10:11:20.387Z,50.11
2019-03-15T10:13:48.157Z,50.27
2019-03-15T10:16:15.929Z,50.79
2019-03-15T10:18:43.660Z,50.77
2019-03-15T10:21:11.409Z,49.92
2019-03-15T10:23:39.144Z,50.30
2019-03-15T10:26:07.005Z,50.18
2019-03-15T10:28:34.758Z,50.37
2019-03-15T10:31:02.498Z,50.33
2019-03-15T10:33:30.245Z,50.50
2019-03-15T10:35:57.976Z,50.16
2019-03-15T10:38:25.775Z,50.39
2019-03-15T10:40:53.684Z,50.55
2019-03-15T10:43:21.472Z,50.61
2019-03-15T10:45:49.238Z,50.64
2019-03-15T10:48:25.302Z,50.49
2019-03-15T10:50:46.480Z,50.78
2019-03-15T10:53:14.219Z,50.43
2019-03-15T10:55:41.992Z,51.03
2019-03-15T10:58:09.998Z,50.39
2019-03-15T11:00:37.872Z,50.15
2019-03-15T11:03:05.632Z,51.55
2019-03-15T11:05:33.386Z,50.12
2019-03-15T11:08:01.245Z,50.09
2019-03-15T11:10:29.046Z,49.86
2019-03-15T11:12:56.809Z,50.05
2019-03-15T11:15:24.540Z,50.17
2019-03-15T11:17:52.289Z,49.91
2019-03-15T11:20:20.136Z,50.07
2019-03-15T11:22:47.936Z,50.49
2019-03-15T11:25:15.714Z,50.05
2019-03-15T11:27:43.476Z,50.09
2019-03-15T11:30:11.235Z,50.53
2019-03-15T11:32:39.085Z,49.90
2019-03-15T11:35:07.251Z,49.77
2019-03-15T11:37:35.024Z,49.77
2019-03-15T11:40:02.816Z,50.18
2019-03-15T11:42:30.792Z,49.67
2019-03-15T11:44:58.612Z,50.11
2019-03-15T11:47:26.497Z,49.92
2019-03-15T11:49:54.340Z,49.87
2019-03-15T11:52:22.184Z,50.02
2019-03-15T11:54:50.064Z,49.90
2019-03-15T11:57:17.865Z,49.85
2019-03-15T11:59:45.613Z,49.85
2019-03-15T12:02:13.360Z,50.17
2019-03-15T12:04:41.115Z,50.11
2019-03-15T12:07:10.425Z,49.72
2019-03-15T12:09:40.898Z,50.23
2019-03-15T12:12:07.848Z,49.46
2019-03-15T12:14:40.979Z,50.32
2019-03-15T12:17:05.061Z,50.26
2019-03-15T12:19:32.844Z,50.13
2019-03-15T12:22:06.098Z,50.47
2019-03-15T12:24:30.433Z,49.72
2019-03-15T12:26:58.404Z,49.86
2019-03-15T12:29:26.136Z,49.75
2019-03-15T12:31:53.901Z,49.33
2019-03-15T12:34:21.692Z,49.81
2019-03-15T12:36:49.507Z,49.56
2019-03-15T12:39:17.370Z,49.61
2019-03-15T12:41:45.241Z,49.90
2019-03-15T12:44:13.020Z,50.04
2019-03-15T12:46:41.072Z,49.76
2019-03-15T12:49:08.906Z,49.94
2019-03-15T12:51:36.728Z,50.32
2019-03-15T12:54:04.493Z,50.52
2019-03-15T12:56:32.286Z,50.04
2019-03-15T12:59:00.065Z,50.32
2019-03-15T13:01:27.839Z,50.24
2019-03-15T13:03:55.592Z,50.34
2019-03-15T13:06:23.337Z,50.30
2019-03-15T13:08:51.198Z,49.86
2019-03-15T13:11:18.955Z,50.74
2019-03-15T13:13:46.792Z,49.67
2019-03-15T13:16:14.567Z,49.87
2019-03-15T13:18:42.301Z,49.64
2019-03-15T13:21:10.079Z,50.43
2019-03-15T13:23:37.822Z,49.62
2019-03-15T13:26:05.698Z,49.52
2019-03-15T13:28:33.432Z,49.55
2019-03-15T13:31:01.193Z,49.71
2019-03-15T13:33:29.009Z,49.21
2019-03-15T13:35:56.769Z,52.35
2019-03-15T13:38:24.503Z,49.36
2019-03-15T13:40:52.343Z,51.40
2019-03-15T13:43:20.082Z,53.36
2019-03-15T13:45:48.018Z,50.00
2019-03-15T13:48:15.769Z,49.86
2019-03-15T13:50:43.521Z,49.76
2019-03-15T13:53:11.325Z,50.33
2019-03-15T13:55:39.089Z,49.82
2019-03-15T13:58:06.961Z,48.93
2019-03-15T14:00:34.785Z,54.00
2019-03-15T14:03:02.604Z,48.97
2019-03-15T14:05:30.350Z,51.31
2019-03-15T14:08:06.951Z,50.47
2019-03-15T14:10:27.557Z,48.17
2019-03-15T14:12:55.310Z,48.89
2019-03-15T14:15:23.072Z,48.10
2019-03-15T14:17:50.837Z,50.84
2019-03-15T14:20:18.682Z,51.79
2019-03-15T14:22:46.454Z,50.86
2019-03-15T14:25:14.201Z,49.22
2019-03-15T14:27:41.974Z,49.41
2019-03-15T14:30:10.249Z,50.33
2019-03-15T14:32:38.065Z,50.41
2019-03-15T14:35:05.827Z,47.72
2019-03-15T14:37:33.572Z,49.10
2019-03-15T14:40:01.303Z,51.61
2019-03-15T14:42:29.101Z,49.78
2019-03-15T14:44:56.901Z,49.62
2019-03-15T14:47:24.759Z,49.59
2019-03-15T14:49:53.208Z,48.31
2019-03-15T14:55:30.538Z,51.79
2019-03-15T14:58:00.240Z,49.75
2019-03-15T15:00:27.763Z,51.27
2019-03-15T15:02:55.596Z,48.43
2019-03-15T15:05:23.345Z,48.89
2019-03-15T15:07:51.412Z,47.93
2019-03-15T15:10:19.213Z,49.20
2019-03-15T15:12:46.968Z,49.93
2019-03-15T15:15:14.709Z,49.37
2019-03-15T15:17:42.454Z,51.28
2019-03-15T15:20:10.370Z,50.45
2019-03-15T15:22:38.133Z,50.32
2019-03-15T15:25:05.908Z,52.43
2019-03-15T15:27:33.734Z,50.38
2019-03-15T15:30:01.465Z,49.49
2019-03-15T15:32:29.380Z,50.19
2019-03-15T15:34:57.127Z,51.67
2019-03-15T15:37:24.864Z,50.75
2019-03-15T15:39:52.589Z,50.25
2019-03-15T15:42:20.408Z,47.84
2019-03-15T15:44:48.132Z,49.04
2019-03-15T15:47:15.881Z,49.71
2019-03-15T15:49:43.654Z,49.11
2019-03-15T15:52:11.385Z,50.87
2019-03-15T15:54:39.137Z,49.78
2019-03-15T15:57:07.046Z,48.47
2019-03-15T15:59:34.840Z,48.64
2019-03-15T16:02:03.722Z,49.12
2019-03-15T16:04:31.481Z,51.61
2019-03-15T16:06:59.307Z,51.57
2019-03-15T16:09:27.100Z,48.89
2019-03-15T16:11:55.082Z,49.07
2019-03-15T16:14:22.833Z,49.20
2019-03-15T16:16:50.906Z,48.01
2019-03-15T16:19:18.675Z,47.83
2019-03-15T16:21:46.651Z,48.44
2019-03-15T16:24:14.477Z,49.91
2019-03-15T16:26:42.203Z,48.98
2019-03-15T16:29:10.142Z,48.14
2019-03-15T16:31:37.892Z,50.34
2019-03-15T16:34:05.760Z,49.47
2019-03-15T16:36:33.766Z,48.26
2019-03-15T16:39:01.829Z,51.03
2019-03-15T16:41:29.715Z,47.68
2019-03-15T16:43:57.442Z,47.78
2019-03-15T16:46:25.219Z,49.29
2019-03-15T16:48:53.001Z,48.00
2019-03-15T16:51:20.878Z,46.77
2019-03-15T16:53:48.711Z,49.15
2019-03-15T16:56:17.727Z,48.33
2019-03-15T16:58:46.281Z,47.28
2019-03-15T17:01:14.023Z,49.28
2019-03-15T17:03:41.825Z,48.99
2019-03-15T17:06:09.839Z,47.87
2019-03-15T17:08:38.407Z,46.22
2019-03-15T17:11:06.248Z,48.14
2019-03-15T17:13:34.002Z,51.15
2019-03-15T17:16:01.826Z,48.73
2019-03-15T17:18:29.660Z,49.99
2019-03-15T17:20:57.383Z,49.42
2019-03-15T17:23:25.140Z,46.93
2019-03-15T17:25:52.936Z,46.63
2019-03-15T17:28:20.706Z,48.17
2019-03-15T17:30:48.537Z,48.85
2019-03-15T17:33:16.268Z,47.50
2019-03-15T17:35:44.038Z,47.96
2019-03-15T17:38:11.779Z,47.50
2019-03-15T17:40:39.506Z,46.06
2019-03-15T17:43:07.535Z,44.67
2019-03-15T17:45:35.268Z,48.53
2019-03-15T17:48:03.182Z,50.20
2019-03-15T17:50:31.005Z,48.25
2019-03-15T17:52:58.921Z,46.08
2019-03-15T17:55:26.730Z,50.14
2019-03-15T17:57:54.495Z,46.83
2019-03-15T18:00:30.041Z,46.62
2019-03-15T18:02:57.847Z,47.80
2019-03-15T18:05:25.812Z,48.52
2019-03-15T18:07:53.623Z,47.15
2019-03-15T18:10:21.373Z,47.18
2019-03-15T18:12:49.139Z,48.60
2019-03-15T18:15:16.891Z,47.05
2019-03-15T18:17:44.693Z,46.93
2019-03-15T18:20:12.709Z,45.77
2019-03-15T18:22:40.476Z,48.76
2019-03-15T18:25:08.310Z,48.61
2019-03-15T18:27:39.340Z,46.96
2019-03-15T18:30:07.592Z,45.86
2019-03-15T18:32:35.395Z,48.19
2019-03-15T18:35:03.141Z,49.47
2019-03-15T18:37:30.955Z,47.42
2019-03-15T18:39:58.710Z,49.08
2019-03-15T18:42:32.933Z,49.18
2019-03-15T18:45:00.791Z,47.57
2019-03-15T18:47:28.606Z,46.52
2019-03-15T18:49:56.352Z,46.77
2019-03-15T18:52:24.181Z,47.68
2019-03-15T18:54:51.928Z,45.60
2019-03-15T18:57:19.700Z,48.86
2019-03-15T18:59:47.442Z,46.31
2019-03-15T19:02:15.193Z,51.42
2019-03-15T19:04:43.095Z,47.42
2019-03-15T19:07:10.965Z,48.50
2019-03-15T19:09:38.783Z,45.65
2019-03-15T19:12:06.677Z,46.58
2019-03-15T19:14:34.515Z,46.30
2019-03-15T19:17:02.345Z,46.41
2019-03-15T19:19:30.192Z,47.79
2019-03-15T19:21:57.964Z,49.97
2019-03-15T19:24:25.853Z,46.14
2019-03-15T19:26:53.692Z,48.33
2019-03-15T19:29:22.272Z,47.73
2019-03-15T19:31:50.156Z,45.33
2019-03-15T19:34:17.921Z,48.42
2019-03-15T19:36:45.658Z,46.23
2019-03-15T19:39:13.592Z,48.13
2019-03-15T19:41:42.058Z,46.54
2019-03-15T19:44:09.889Z,45.84
2019-03-15T19:46:37.648Z,45.93
2019-03-15T19:49:05.460Z,46.71
2019-03-15T19:51:33.296Z,46.93
2019-03-15T19:54:01.088Z,47.58
2019-03-15T19:56:29.064Z,47.12
2019-03-15T19:58:56.859Z,48.09
2019-03-15T20:01:24.869Z,49.14
2019-03-15T20:03:52.625Z,44.05
2019-03-15T20:06:20.395Z,46.52
2019-03-15T20:08:48.115Z,46.63
2019-03-15T20:11:15.859Z,48.25
2019-03-15T20:13:43.854Z,45.85
2019-03-15T20:16:11.655Z,45.63
2019-03-15T20:18:39.566Z,45.67
2019-03-15T20:21:07.381Z,47.11
2019-03-15T20:23:35.162Z,46.90
2019-03-15T20:26:03.125Z,45.57
2019-03-15T20:28:30.860Z,44.80
2019-03-15T20:30:58.624Z,44.90
2019-03-15T20:33:26.535Z,50.31
2019-03-15T20:35:54.286Z,48.67
2019-03-15T20:38:22.096Z,45.66
2019-03-15T20:40:49.832Z,47.59
2019-03-15T20:43:17.683Z,45.72
2019-03-15T20:45:45.574Z,45.88
2019-03-15T20:48:13.853Z,46.25
2019-03-15T20:50:46.549Z,45.20
2019-03-15T20:53:12.910Z,46.94
2019-03-15T20:55:40.786Z,47.02
2019-03-15T20:58:08.702Z,48.31
2019-03-15T21:00:36.495Z,45.58
2019-03-15T21:03:04.372Z,47.48
2019-03-15T21:05:32.113Z,50.34
2019-03-15T21:07:59.891Z,47.30
2019-03-15T21:10:27.620Z,46.75
2019-03-15T21:12:55.467Z,47.75
2019-03-15T21:15:23.291Z,46.58
2019-03-15T21:17:51.044Z,47.12
2019-03-15T21:20:22.168Z,48.31
2019-03-15T21:22:48.392Z,48.30
2019-03-15T21:25:16.133Z,47.77
2019-03-15T21:27:53.544Z,44.48
2019-03-15T21:30:14.090Z,47.02
2019-03-15T21:32:41.828Z,48.12
2019-03-15T21:35:09.712Z,45.29
2019-03-15T21:37:37.800Z,48.71
2019-03-15T21:40:06.077Z,46.88
2019-03-15T21:42:33.822Z,48.18
2019-03-15T21:45:01.611Z,49.85
2019-03-15T21:47:29.378Z,47.62
2019-03-15T21:49:57.357Z,46.48
2019-03-15T21:52:25.109Z,45.62
2019-03-15T21:54:52.870Z,46.51
2019-03-15T21:57:20.678Z,47.31
2019-03-15T21:59:48.420Z,47.07
2019-03-15T22:02:16.157Z,48.34
2019-03-15T22:04:43.994Z,46.07
2019-03-15T22:07:11.740Z,46.09
2019-03-15T22:09:39.710Z,50.71
2019-03-15T22:12:07.437Z,47.33
2019-03-15T22:14:35.171Z,48.64
2019-03-15T22:17:02.903Z,46.39
2019-03-15T22:19:30.669Z,49.03
2019-03-15T22:21:58.675Z,46.68
2019-03-15T22:24:26.485Z,46.50
2019-03-15T22:26:54.208Z,49.81
2019-03-15T22:29:21.949Z,48.08
2019-03-15T22:31:49.673Z,51.05
2019-03-15T22:34:17.540Z,46.07
2019-03-15T22:36:45.263Z,46.60
2019-03-15T22:39:12.999Z,48.66
2019-03-15T22:41:40.753Z,47.48
2019-03-15T22:44:08.493Z,45.17
2019-03-15T22:46:36.308Z,47.93
2019-03-15T22:49:04.085Z,47.27
2019-03-15T22:51:32.016Z,49.12
2019-03-15T22:53:59.738Z,49.46
2019-03-15T22:56:27.476Z,49.65
2019-03-15T22:58:55.213Z,53.17
2019-03-15T23:01:30.161Z,48.21
2019-03-15T23:03:52.561Z,47.78
2019-03-15T23:06:20.481Z,47.51
2019-03-15T23:08:48.210Z,47.91
2019-03-15T23:11:17.255Z,47.69
2019-03-15T23:13:45.024Z,48.23
2019-03-15T23:16:12.805Z,48.38
2019-03-15T23:18:40.589Z,53.30
2019-03-15T23:21:08.381Z,51.76
2019-03-15T23:23:36.268Z,47.34
2019-03-15T23:26:04.010Z,49.72
2019-03-15T23:28:31.786Z,47.75
2019-03-15T23:30:59.517Z,50.00
2019-03-15T23:33:27.295Z,46.23
2019-03-15T23:35:55.265Z,48.27
2019-03-15T23:38:23.077Z,49.82
2019-03-15T23:40:50.908Z,49.18
2019-03-15T23:43:18.712Z,46.57
2019-03-15T23:45:46.476Z,47.54
2019-03-15T23:48:14.317Z,50.78
2019-03-15T23:50:42.052Z,48.27
2019-03-15T23:53:09.816Z,47.92
2019-03-15T23:55:37.574Z,47.21
2019-03-15T23:58:05.557Z,46.37
